Данни от 22.03.2019 г. 22:51:59

Температура вътрешна: 19.4 °C
Температура външна: 8.4 °C
Атмосферно налягане: 1008.7 hPa
Атмосферно налягане на морско равнище: 1026.7 hPa
Влажност: 52.8 %



История от последните 24 часа

Дата и часTin [°C]P [hPa]Psl [hPa]H [%]Tout [°C]
   22.03.2019 г. 22:30:00      19.4      1008.6      1026.6      52.6      8.8   
   22.03.2019 г. 22:00:59      19.4      1008.6      1026.6      52.6      9.3   
   22.03.2019 г. 21:30:00      19.4      1008.5      1026.5      52.8      9.9   
   22.03.2019 г. 21:00:59      19.3      1008.6      1026.6      53.0      10.1   
   22.03.2019 г. 20:30:00      19.1      1008.7      1026.7      52.7      10.5   
   22.03.2019 г. 20:00:59      19.1      1008.5      1026.5      53.3      11.1   
   22.03.2019 г. 19:30:00      19.1      1008.8      1026.8      53.1      12.4   
   22.03.2019 г. 19:00:59      19.2      1008.7      1026.7      53.2      14.4   
   22.03.2019 г. 18:30:00      19.1      1008.8      1026.8      52.7      18.4   
   22.03.2019 г. 18:00:59      19.1      1008.6      1026.6      52.4      19.1   
   22.03.2019 г. 17:30:00      19.0      1008.6      1026.6      52.0      19.6   
   22.03.2019 г. 17:00:59      19.0      1008.8      1026.8      51.6      20.9   
   22.03.2019 г. 16:30:59      19.0      1009.0      1027.0      51.6      22.3   
   22.03.2019 г. 16:00:59      19.1      1009.3      1027.3      51.4      23.3   
   22.03.2019 г. 15:30:59      19.2      1009.5      1027.5      50.9      22.3   
   22.03.2019 г. 15:00:59      19.2      1009.7      1027.8      52.2      21.1   
   22.03.2019 г. 14:30:59      19.1      1010.0      1028.0      51.0      19.9   
   22.03.2019 г. 14:00:59      19.0      1010.5      1028.5      51.0      18.7   
   22.03.2019 г. 13:30:59      19.0      1010.8      1028.9      50.3      17.5   
   22.03.2019 г. 13:00:59      19.0      1011.4      1029.5      51.1      16.3   
   22.03.2019 г. 12:30:59      19.0      1011.8      1029.9      51.8      15.4   
   22.03.2019 г. 12:00:59      19.0      1012.3      1030.4      51.9      14.6   
   22.03.2019 г. 11:30:59      19.0      1012.6      1030.7      51.1      14.0   
   22.03.2019 г. 11:00:59      18.9      1012.8      1030.8      51.5      13.3   
   22.03.2019 г. 10:30:59      18.9      1013.3      1031.3      52.0      12.6   
   22.03.2019 г. 10:00:59      18.9      1013.6      1031.6      51.7      12.0   
   22.03.2019 г. 10:00:00      18.9      1013.6      1031.7      52.2      12.0   
   22.03.2019 г. 09:30:59      18.9      1013.7      1031.8      51.7      11.3   
   22.03.2019 г. 09:00:59      18.9      1013.8      1031.8      52.4      10.4   
   22.03.2019 г. 08:30:59      18.9      1013.8      1031.9      51.7      9.3   
   22.03.2019 г. 08:00:59      18.8      1013.8      1031.9      52.0      8.0   
   22.03.2019 г. 08:00:00      18.8      1013.8      1031.9      51.1      8.0   
   22.03.2019 г. 07:30:59      18.8      1013.8      1031.9      52.7      7.0   
   22.03.2019 г. 07:00:00      18.9      1013.5      1031.6      52.8      7.3   
   22.03.2019 г. 06:30:59      19.0      1013.3      1031.4      53.8      7.4   
   22.03.2019 г. 06:00:00      19.1      1013.3      1031.3      54.2      7.5   
   22.03.2019 г. 05:30:59      19.4      1013.1      1031.2      54.2      7.5   
   22.03.2019 г. 05:00:00      19.4      1013.3      1031.4      53.7      8.6   
   22.03.2019 г. 04:30:59      19.4      1013.3      1031.4      53.6      9.8   
   22.03.2019 г. 04:00:00      19.4      1013.3      1031.4      53.6      10.0   
   22.03.2019 г. 03:30:59      19.5      1013.5      1031.6      53.5      10.1   
   22.03.2019 г. 03:00:00      19.5      1013.5      1031.6      53.5      10.0   
   22.03.2019 г. 02:30:59      19.5      1013.6      1031.7      53.3      9.9   
   22.03.2019 г. 02:00:59      19.5      1013.7      1031.8      53.1      9.5   
   22.03.2019 г. 01:30:59      19.5      1013.7      1031.8      52.7      9.3   
   22.03.2019 г. 01:00:59      19.5      1013.6      1031.7      53.1      9.8   
   22.03.2019 г. 00:30:59      19.5      1013.6      1031.7      53.0      10.0   
   22.03.2019 г. 00:00:59      19.5      1013.6      1031.7      52.2      10.5   

BaroSL graphic

TEMPE graphic